• Join FlightAware (Why Join?)
  • Login
  • US Flag 
12:35PM EDT


 

Airport Tracker/Info


-or-


 

Live Flight TrackerFlight Track Log ✈ SWA1844 ✈ 03-May-2013 ✈ KPHX - KSEA

Flight Track Log - Related Links

Times and Time Zones

All times are in EDT time to prevent confusion due to time zone crossing. See the SWA1844 flight status page for this flight to view local times or setup timezone preferences in your user account.

Time Position Orientation Groundspeed Altitude Reporting Facility
EDT Latitude Longitude Course Direction KTS MPH feet Rate Location/Type
01:32AM 33.4308 -111.9872 20° North 140 161 2,400  Level Albuquerque Center
01:33AM 33.4331 -111.9192 88° East 198 228 5,000 2,820 Climbing Albuquerque Center
01:34AM 33.4508 -111.8342 76° East 278 320 8,200 3,360 Climbing Albuquerque Center
01:35AM 33.4967 -111.7508 57° Northeast 301 346 11,800 3,480 Climbing Albuquerque Center
01:36AM 33.5533 -111.6542 55° Northeast 360 414 15,300 3,660 Climbing Albuquerque Center
01:37AM 33.6500 -111.6517 North 355 409 19,300 3,420 Climbing Albuquerque Center
01:38AM 33.9356 -111.7835 20° North  Level FlightAware Approximate
01:38AM 33.7581 -111.6722 351° North 367 422 22,200  Level Albuquerque Center
01:39AM 33.8681 -111.6964 350° North 396 456 25,200 2,760 Climbing Albuquerque Center
01:40AM 33.9814 -111.7194 350° North 411 473 27,800 2,400 Climbing Albuquerque Center
01:41AM 34.0967 -111.7436 350° North 420 483 30,000 2,100 Climbing Albuquerque Center
01:42AM 34.2156 -111.7689 350° North 432 497 32,100 2,040 Climbing Albuquerque Center
01:43AM 34.3211 -111.7925 350° North 442 509 34,200 1,920 Climbing Albuquerque Center
01:44AM 34.4389 -111.8181 350° North 435 501 36,000 1,920 Climbing Albuquerque Center
01:45AM 34.5817 -111.8486 350° North 434 499 38,100 1,740 Climbing Albuquerque Center
01:46AM 34.6997 -111.8736 350° North 432 497 39,500 900 Climbing Albuquerque Center
01:48AM 34.8058 -111.8967 350° North 430 495 40,000 240 Climbing Albuquerque Center
01:49AM 34.9222 -111.9214 350° North 429 494 40,000  Level Albuquerque Center
01:50AM 35.0383 -111.9469 350° North 428 493 40,000  Level Albuquerque Center
01:51AM 35.1558 -111.9708 351° North 430 495 40,000  Level Albuquerque Center
01:52AM 35.2725 -111.9986 349° North 430 495 40,000  Level Albuquerque Center
01:53AM 35.3817 -112.0517 338° Northwest 427 491 40,000  Level Albuquerque Center
01:54AM 35.4894 -112.1075 337° Northwest 425 489 40,000  Level Albuquerque Center
01:55AM 35.6181 -112.1733 337° Northwest 423 487 40,000  Level Albuquerque Center
01:56AM 35.7256 -112.2272 338° Northwest 420 483 40,000  Level Los Angeles Center
01:57AM 35.8339 -112.2839 337° Northwest 424 488 40,000  Level Los Angeles Center
01:58AM 35.9578 -112.3478 337° Northwest 427 491 40,000  Level Los Angeles Center
01:59AM 36.0678 -112.4042 337° Northwest 428 493 40,000  Level Los Angeles Center
02:00AM 36.1783 -112.4619 337° Northwest 431 496 40,000  Level Los Angeles Center
02:01AM 36.2856 -112.5186 337° Northwest 422 486 40,000  Level Los Angeles Center
02:02AM 36.3928 -112.5747 337° Northwest 419 482 40,000  Level Los Angeles Center
02:03AM 36.4992 -112.6308 337° Northwest 416 479 40,000  Level Los Angeles Center
02:04AM 36.6067 -112.6869 337° Northwest 418 481 40,000  Level Los Angeles Center
02:05AM 36.7125 -112.7431 337° Northwest 414 476 40,000  Level Los Angeles Center
02:06AM 36.8381 -112.8108 337° Northwest 410 472 40,000  Level Los Angeles Center
02:07AM 36.9439 -112.8672 337° Northwest 412 474 40,000  Level Los Angeles Center
02:08AM 37.0506 -112.9239 337° Northwest 414 476 40,000  Level Los Angeles Center
02:09AM 37.1561 -112.9814 337° Northwest 414 476 40,000  Level Los Angeles Center
02:10AM 37.2206 -113.0158 337° Northwest 414 476 40,000  Level Salt Lake Center
02:11AM 37.3283 -113.0742 337° Northwest 418 481 40,000  Level Salt Lake Center
02:12AM 37.4347 -113.1333 336° Northwest 416 479 40,000  Level Salt Lake Center
02:13AM 37.5428 -113.1936 336° Northwest 418 481 40,000  Level Salt Lake Center
02:14AM 37.6514 -113.2508 337° Northwest 419 482 40,000  Level Salt Lake Center
02:15AM 37.8447 -113.3578 336° Northwest 417 480 40,000  Level Salt Lake Center
02:17AM 37.9461 -113.4264 332° Northwest 414 476 40,000  Level Salt Lake Center
02:18AM 38.0600 -113.5197 327° Northwest 406 467 40,000  Level Salt Lake Center
02:19AM 38.1558 -113.5986 327° Northwest 410 472 40,000  Level Salt Lake Center
02:20AM 38.2514 -113.6775 327° Northwest 409 471 40,000  Level Salt Lake Center
02:21AM 38.3458 -113.7564 327° Northwest 407 468 40,000  Level Salt Lake Center
02:22AM 38.4406 -113.8358 327° Northwest 407 468 40,000  Level Salt Lake Center
02:23AM 38.5353 -113.9139 327° Northwest 406 467 40,000  Level Salt Lake Center
02:24AM 38.6286 -113.9953 326° Northwest 406 467 40,000  Level Salt Lake Center
02:25AM 38.7244 -114.0742 327° Northwest 409 471 40,000  Level Salt Lake Center
02:26AM 38.8189 -114.1556 326° Northwest 410 472 40,000  Level Salt Lake Center
02:27AM 38.9142 -114.2375 326° Northwest 412 474 40,000  Level Salt Lake Center
02:28AM 39.0119 -114.3203 327° Northwest 420 483 40,000  Level Salt Lake Center
02:29AM 39.1111 -114.4061 326° Northwest 429 494 40,000  Level Salt Lake Center
02:30AM 39.2011 -114.4864 325° Northwest 424 488 40,000  Level Salt Lake Center
02:31AM 39.3119 -114.5753 328° Northwest 421 484 40,000  Level Salt Lake Center
02:32AM 39.4108 -114.6439 332° Northwest 421 484 40,000  Level Salt Lake Center
02:33AM 39.5122 -114.7111 333° Northwest 426 490 40,000  Level Salt Lake Center
02:34AM 39.6281 -114.7967 330° Northwest 429 494 40,000  Level Salt Lake Center
02:35AM 39.7311 -114.8692 332° Northwest 438 504 40,000  Level Salt Lake Center
02:36AM 39.8347 -114.9431 331° Northwest 440 506 40,000  Level Salt Lake Center
02:37AM 39.9539 -115.0278 331° Northwest 438 504 40,000  Level Salt Lake Center
02:38AM 40.0553 -115.1019 331° Northwest 436 502 40,000  Level Salt Lake Center
02:39AM 40.1553 -115.1747 331° Northwest 431 496 40,000  Level Salt Lake Center
02:40AM 40.2539 -115.2464 331° Northwest 426 490 40,000  Level Salt Lake Center
02:41AM 40.3708 -115.3328 331° Northwest 431 496 40,000  Level Salt Lake Center
02:42AM 40.4711 -115.4056 331° Northwest 432 497 40,000  Level Salt Lake Center
02:43AM 40.5678 -115.4775 331° Northwest 424 488 40,000  Level Salt Lake Center
02:44AM 40.6842 -115.5647 330° Northwest 430 495 40,000 -60 Level Salt Lake Center
02:45AM 40.7856 -115.6386 331° Northwest 435 501 39,900  Descending Salt Lake Center
02:46AM 40.8869 -115.7147 330° Northwest 436 502 40,000  Climbing Salt Lake Center
02:47AM 41.0058 -115.8017 331° Northwest 439 505 40,000  Level Salt Lake Center
02:48AM 41.1058 -115.8775 330° Northwest 437 503 40,000  Level Salt Lake Center
02:49AM 41.2064 -115.9519 331° Northwest 434 499 40,000  Level Salt Lake Center
02:50AM 41.3228 -116.0408 330° Northwest 434 499 40,000  Level Salt Lake Center
02:51AM 41.4233 -116.1164 331° Northwest 434 499 40,000  Level Salt Lake Center
02:52AM 41.5236 -116.1931 330° Northwest 433 498 40,000  Level Salt Lake Center
02:53AM 41.6414 -116.2858 330° Northwest 440 506 40,000  Level Salt Lake Center
02:54AM 41.7408 -116.3628 330° Northwest 435 501 40,000  Level Salt Lake Center
02:55AM 41.8417 -116.4386 331° Northwest 435 501 40,000  Level Salt Lake Center
02:56AM 41.9408 -116.5161 330° Northwest 431 496 40,000  Level Salt Lake Center
02:57AM 42.0519 -116.6008 330° Northwest 431 496 40,000  Level Salt Lake Center
02:58AM 42.1592 -116.6833 330° Northwest 439 505 40,000  Level Salt Lake Center
02:59AM 42.2608 -116.7639 330° Northwest 443 510 40,000  Level Salt Lake Center
03:00AM 42.3728 -116.8522 330° Northwest 435 501 40,000  Level Salt Lake Center
03:01AM 42.4744 -116.9319 330° Northwest 440 506 40,000  Level Salt Lake Center
03:02AM 42.5931 -117.0267 330° Northwest 442 509 40,000  Level Salt Lake Center
03:03AM 42.6936 -117.1061 330° Northwest 437 503 40,000  Level Salt Lake Center
03:04AM 42.7950 -117.1869 330° Northwest 441 507 40,000  Level Salt Lake Center
03:05AM 42.8958 -117.2683 329° Northwest 439 505 40,000  Level Salt Lake Center
03:06AM 43.0125 -117.3631 329° Northwest 438 504 40,100  Climbing Salt Lake Center
03:07AM 43.1139 -117.4450 329° Northwest 440 506 40,000 -60 Descending Salt Lake Center
03:08AM 43.2142 -117.5267 329° Northwest 438 504 40,000  Level Salt Lake Center
03:09AM 43.3322 -117.6217 330° Northwest 438 504 40,000  Level Salt Lake Center
03:10AM 43.4325 -117.7039 329° Northwest 437 503 40,000  Level Salt Lake Center
03:11AM 43.5322 -117.7856 329° Northwest 435 501 40,000  Level Salt Lake Center
03:12AM 43.6314 -117.8669 329° Northwest 433 498 40,000  Level Salt Lake Center
03:13AM 43.7458 -117.9617 329° Northwest 429 494 40,000  Level Salt Lake Center
03:14AM 43.8439 -118.0431 329° Northwest 428 493 40,000  Level Salt Lake Center
03:15AM 43.9397 -118.1228 329° Northwest 421 484 40,000  Level Salt Lake Center
03:16AM 44.0522 -118.2181 329° Northwest 423 487 40,000  Level Salt Lake Center
03:17AM 44.1500 -118.2981 330° Northwest 424 488 40,000  Level Salt Lake Center
03:18AM 44.2458 -118.3797 329° Northwest 422 486 40,000  Level Salt Lake Center
03:19AM 44.3336 -118.4544 329° Northwest 419 482 40,000  Level Seattle Center
03:20AM 44.4336 -118.5378 329° Northwest 420 483 40,000  Level Seattle Center
03:21AM 44.5325 -118.6239 328° Northwest 420 483 40,000  Level Seattle Center
03:22AM 44.6344 -118.7106 329° Northwest 428 493 40,000  Level Seattle Center
03:23AM 44.7364 -118.7994 328° Northwest 433 498 40,000  Level Seattle Center
03:24AM 44.8342 -118.8825 329° Northwest 417 480 40,000  Level Seattle Center
03:25AM 44.9294 -118.9672 328° Northwest 407 468 40,000  Level Seattle Center
03:26AM 45.0286 -119.0511 329° Northwest 416 479 40,000  Level Seattle Center
03:27AM 45.1256 -119.1383 328° Northwest 417 480 40,000  Level Seattle Center
03:28AM 45.2231 -119.2236 328° Northwest 416 479 40,000  Level Seattle Center
03:29AM 45.3197 -119.3100 328° Northwest 415 478 40,000  Level Seattle Center
03:30AM 45.4181 -119.3972 328° Northwest 419 482 40,000  Level Seattle Center
03:31AM 45.5161 -119.4828 329° Northwest 418 481 40,000  Level Seattle Center
03:32AM 45.6144 -119.5719 328° Northwest 419 482 40,000  Level Seattle Center
03:33AM 45.7142 -119.6606 328° Northwest 422 486 40,000  Level Seattle Center
03:34AM 45.8139 -119.7506 328° Northwest 425 489 40,000  Level Seattle Center
03:35AM 45.8925 -119.8203 328° Northwest 422 486 40,000  Level Seattle Center
03:36AM 46.0106 -119.9306 327° Northwest 423 487 40,000  Level Seattle Center
03:37AM 46.1100 -120.0217 328° Northwest 425 489 40,000  Level Seattle Center
03:38AM 46.2106 -120.1128 328° Northwest 428 493 40,000 -420 Level Seattle Center
03:39AM 46.3094 -120.2064 327° Northwest 428 493 39,200 -900 Descending Seattle Center
03:40AM 46.4075 -120.2961 328° Northwest 419 482 38,300 -1,380 Descending Seattle Center
03:41AM 46.4986 -120.3811 327° Northwest 394 453 36,500 -2,520 Descending Seattle Center
03:42AM 46.5825 -120.4778 322° Northwest 395 455 33,300 -3,480 Descending Seattle Center
03:43AM 46.6483 -120.6108 306° West 410 472 29,600 -3,300 Descending Seattle Center
03:44AM 46.7128 -120.7475 305° West 411 473 26,800 -2,880 Descending Seattle Center
03:45AM 46.7756 -120.8811 304° West 402 463 23,900 -2,820 Descending Seattle Center
03:46AM 46.8342 -121.0067 304° West 378 435 21,200 -2,580 Descending Seattle Center
03:47AM 46.8900 -121.1275 304° West 361 415 18,800 -2,460 Descending Seattle Center
03:48AM 46.9456 -121.2436 305° West 353 406 16,300 -2,820 Descending Seattle Center
03:48AM 46.9889 -121.3303 306° West 346 398 14,300 -2,640 Descending Seattle Center
03:49AM 46.9978 -121.3622 292° West 346 398 13,700 -2,160 Descending Seattle Center
03:49AM 47.0331 -121.4294 308° West 338 389 12,600 -1,500 Descending Seattle Center
03:50AM 47.0603 -121.4839 306° West 323 372 12,200 -540 Descending Seattle Center
03:50AM 47.0842 -121.5378 303° West 295 339 12,000 -540 Descending Seattle Center
03:51AM 47.1008 -121.5867 297° West 296 341 11,700 -720 Descending Seattle Center
03:51AM 47.1089 -121.6578 279° West 314 361 11,300 -1,320 Descending Seattle Center
03:52AM 47.1192 -121.7153 285° West 319 367 10,400 -1,740 Descending Seattle Center
03:52AM 47.1283 -121.7839 281° West 322 371 9,600 -1,800 Descending Seattle Center
03:53AM 47.1394 -121.8367 287° West 308 354 8,600 -1,680 Descending Seattle Center
03:53AM 47.1514 -121.8983 286° West 293 337 7,900 -1,020 Descending Seattle Center
03:54AM 47.1667 -121.9472 295° West 291 335 7,600 -1,380 Descending Seattle Center
03:54AM 47.1883 -121.9889 307° West 277 319 6,700 -2,220 Descending Seattle Center
03:55AM 47.2125 -122.0403 305° West 281 323 5,400 -2,100 Descending Seattle Center
03:55AM 47.2303 -122.0833 301° West 278 320 4,600 -1,680 Descending Seattle Center
03:56AM 47.2531 -122.1328 304° West 272 313 3,700 -1,260 Descending Seattle Center
03:56AM 47.2739 -122.1833 301° West 247 284 3,200 -840 Descending Seattle Center
03:57AM 47.2881 -122.2136 305° West 235 270 2,900 -600 Descending Seattle Center
03:57AM 47.3086 -122.2589 304° West 207 238 2,600 -420 Descending Seattle Center
03:58AM 47.3175 -122.2808 301° West 193 222 2,500 -540 Descending Seattle Center
03:58AM 47.3383 -122.3050 322° Northwest 144 166 2,100 -720 Descending Seattle Center
03:59AM 47.3525 -122.3094 348° North 149 171 1,800 -720 Descending Seattle Center
03:59AM 47.3686 -122.3111 356° North 114 131 1,500 -540 Descending Seattle Center
04:00AM 47.3839 -122.3086 North 117 135 1,300 -540 Descending Seattle Center
04:00AM 47.3997 -122.3103 356° North 102 117 1,000 -600 Descending Seattle Center
04:01AM 47.4164 -122.3092 North 110 127 700 -480 Descending Seattle Center
04:02AM 47.4467 -122.3092 360° North 119 137 300 -420 Descending Seattle Center